Time;durP1;ratioP1;P1;durP2;ratioP2;P2;SDS_P1;SDS_P2;PMS_P1;PMS_P2;Temp;Humidity;BMP_temperature;BMP_pressure;BME280_temperature;BME280_humidity;BME280_pressure;Samples;Min_cycle;Max_cycle;Signal;HPM_P1;HPM_P2
2021/05/04 00:02:07;;;;;;;4.63;2.67;;;;;;;11.72;52.84;94160.56;5118872;27;20435;-70
2021/05/04 00:04:33;;;;;;;10.05;2.38;;;;;;;11.80;52.34;94170.47;5123268;27;20024;-69
2021/05/04 00:06:59;;;;;;;4.43;3.00;;;;;;;11.88;51.74;94166.25;5129956;28;20102;-70
2021/05/04 00:09:24;;;;;;;4.10;2.80;;;;;;;11.95;50.98;94174.63;5129827;27;20042;-70
2021/05/04 00:11:51;;;;;;;3.13;2.08;;;;;;;11.98;50.72;94165.19;5128575;27;20038;-70
2021/05/04 00:14:16;;;;;;;5.50;3.03;;;;;;;11.98;51.93;94167.88;5125507;27;20027;-70
2021/05/04 00:16:41;;;;;;;4.88;3.03;;;;;;;11.85;52.58;94167.69;5112717;27;20026;-69
2021/05/04 00:19:07;;;;;;;5.47;2.80;;;;;;;11.85;52.12;94170.34;5126287;28;20031;-70
2021/05/04 00:21:32;;;;;;;4.03;2.70;;;;;;;11.76;52.32;94163.41;5121342;27;20031;-69
2021/05/04 00:23:58;;;;;;;4.70;3.05;;;;;;;11.76;52.81;94172.22;5125652;27;20015;-70
2021/05/04 00:26:24;;;;;;;4.65;2.90;;;;;;;11.69;53.41;94174.56;5129942;27;20058;-69
2021/05/04 00:28:49;;;;;;;3.33;2.35;;;;;;;11.68;52.83;94178.31;5124449;27;20156;-69
2021/05/04 00:31:15;;;;;;;5.78;2.60;;;;;;;11.53;53.43;94186.78;5126710;27;20159;-69
2021/05/04 00:33:41;;;;;;;4.50;2.67;;;;;;;11.42;54.09;94189.75;5131528;27;20019;-69
2021/05/04 00:36:06;;;;;;;5.00;2.85;;;;;;;11.39;53.98;94193.00;5129209;27;20486;-70
2021/05/04 00:38:32;;;;;;;4.97;2.67;;;;;;;11.41;53.76;94185.47;5132716;27;20045;-69
2021/05/04 00:40:57;;;;;;;4.22;2.88;;;;;;;11.44;53.73;94182.22;5130636;27;20035;-70
2021/05/04 00:43:27;;;;;;;5.13;2.85;;;;;;;11.47;53.88;94188.03;5130933;27;20029;-69
2021/05/04 00:45:53;;;;;;;4.85;3.13;;;;;;;11.47;54.22;94186.13;5130121;27;20030;-69
2021/05/04 00:48:19;;;;;;;3.70;2.47;;;;;;;11.50;54.75;94190.06;5130023;27;20055;-70
2021/05/04 00:50:44;;;;;;;5.03;3.28;;;;;;;11.47;54.76;94185.34;5131276;27;20034;-70
2021/05/04 00:53:10;;;;;;;6.03;3.08;;;;;;;11.51;54.83;94181.75;5133535;27;20495;-70
2021/05/04 00:55:37;;;;;;;7.03;3.05;;;;;;;11.55;55.06;94180.03;5123281;27;20103;-70
2021/05/04 00:58:02;;;;;;;7.38;2.85;;;;;;;11.61;54.63;94172.66;5119188;27;20069;-70
2021/05/04 01:00:28;;;;;;;5.97;3.08;;;;;;;11.63;53.93;94165.91;5125005;27;20167;-70
2021/05/04 01:02:56;;;;;;;6.03;2.38;;;;;;;11.69;53.45;94163.88;5131359;27;20016;-70
2021/05/04 01:05:21;;;;;;;7.57;2.65;;;;;;;11.75;53.11;94159.97;5115883;27;20438;-70
2021/05/04 01:07:48;;;;;;;7.35;2.60;;;;;;;11.78;53.01;94161.22;5122825;27;20076;-70
2021/05/04 01:10:14;;;;;;;5.32;2.55;;;;;;;11.82;53.03;94156.81;5129922;27;20035;-70
2021/05/04 01:12:39;;;;;;;4.68;2.90;;;;;;;11.88;52.84;94165.47;5123240;27;20027;-70
2021/05/04 01:15:05;;;;;;;6.20;3.90;;;;;;;11.91;53.31;94154.22;5125732;27;20417;-70
2021/05/04 01:17:31;;;;;;;6.18;3.03;;;;;;;11.93;53.09;94168.03;5133095;27;20372;-70
2021/05/04 01:19:57;;;;;;;7.18;2.90;;;;;;;12.01;53.22;94156.56;5132980;27;20106;-70
2021/05/04 01:22:22;;;;;;;6.50;3.10;;;;;;;12.04;52.57;94164.72;5128698;27;20474;-70
2021/05/04 01:24:47;;;;;;;5.55;2.85;;;;;;;12.07;53.09;94157.19;5130006;27;20078;-70
2021/05/04 01:27:14;;;;;;;5.05;2.90;;;;;;;12.12;53.48;94160.47;5130720;27;20118;-70
2021/05/04 01:29:39;;;;;;;8.27;3.22;;;;;;;12.11;52.84;94160.78;5114964;27;20040;-70
2021/05/04 01:32:06;;;;;;;6.32;3.25;;;;;;;12.12;53.26;94155.13;5129483;27;20405;-70
2021/05/04 01:34:31;;;;;;;7.13;2.92;;;;;;;12.08;54.52;94159.53;5120460;27;20034;-70
2021/05/04 01:36:57;;;;;;;6.68;2.88;;;;;;;12.06;54.55;94167.09;5129253;27;20059;-70
2021/05/04 01:39:32;;;;;;;4.97;2.75;;;;;;;12.05;54.32;94165.53;5131803;27;20015;-70
2021/05/04 01:41:57;;;;;;;9.80;3.20;;;;;;;12.01;54.31;94159.25;5127308;27;20084;-71
2021/05/04 01:44:23;;;;;;;9.82;2.92;;;;;;;12.04;55.23;94153.25;5132450;27;20015;-70
2021/05/04 01:46:48;;;;;;;9.02;4.55;;;;;;;12.09;55.62;94160.31;5130492;27;20483;-71
2021/05/04 01:49:13;;;;;;;4.57;2.78;;;;;;;12.07;54.27;94162.53;5124641;27;20094;-70
2021/05/04 01:51:39;;;;;;;7.32;3.25;;;;;;;12.06;55.26;94161.75;5129639;27;20455;-70
2021/05/04 01:54:05;;;;;;;5.78;3.20;;;;;;;12.06;55.98;94161.75;5122451;27;20084;-70
2021/05/04 01:56:30;;;;;;;11.50;3.33;;;;;;;12.10;55.37;94157.34;5134840;27;20040;-71
2021/05/04 01:59:01;;;;;;;6.18;2.92;;;;;;;12.11;54.06;94163.47;5128673;27;20031;-70
2021/05/04 02:01:27;;;;;;;7.70;2.83;;;;;;;12.04;54.19;94164.72;5128775;27;20030;-70
2021/05/04 02:03:52;;;;;;;6.20;3.25;;;;;;;12.05;54.64;94168.19;5126322;27;20106;-70
2021/05/04 02:06:18;;;;;;;8.07;3.22;;;;;;;12.10;54.61;94162.69;5119265;27;20437;-70
2021/05/04 02:08:43;;;;;;;8.05;3.78;;;;;;;12.10;53.75;94173.38;5132191;27;20023;-70
2021/05/04 02:11:10;;;;;;;8.65;2.80;;;;;;;12.06;53.84;94160.97;5126506;27;20031;-71
2021/05/04 02:13:36;;;;;;;5.50;2.90;;;;;;;11.95;54.89;94160.50;5132234;27;20054;-70
2021/05/04 02:16:01;;;;;;;7.57;3.25;;;;;;;12.00;53.46;94163.00;5128988;27;20464;-70
2021/05/04 02:18:27;;;;;;;4.88;2.88;;;;;;;12.01;53.88;94169.94;5132112;27;20023;-70
2021/05/04 02:20:53;;;;;;;5.68;3.40;;;;;;;11.96;53.64;94164.72;5130275;27;20027;-69
2021/05/04 02:23:18;;;;;;;4.82;2.78;;;;;;;11.92;53.71;94161.09;5129237;27;20473;-70
2021/05/04 02:25:43;;;;;;;5.07;2.72;;;;;;;11.95;54.43;94168.50;5120580;27;20027;-72
2021/05/04 02:28:09;;;;;;;4.88;2.47;;;;;;;11.93;54.14;94157.34;5131173;27;20520;-70
2021/05/04 02:30:34;;;;;;;5.45;3.42;;;;;;;11.94;54.51;94165.03;5128292;27;20406;-71
2021/05/04 02:33:01;;;;;;;5.15;2.95;;;;;;;11.94;54.36;94158.91;5127992;27;20099;-70
2021/05/04 02:35:27;;;;;;;8.15;3.13;;;;;;;11.82;55.11;94160.31;5129630;27;20062;-71
2021/05/04 02:37:52;;;;;;;5.30;3.30;;;;;;;11.73;54.71;94170.19;5131591;27;20054;-71
2021/05/04 02:40:18;;;;;;;6.85;2.85;;;;;;;11.62;54.92;94168.88;5127000;27;20516;-70
2021/05/04 02:42:43;;;;;;;5.93;3.08;;;;;;;11.51;55.08;94167.63;5131666;27;20410;-70
2021/05/04 02:45:09;;;;;;;6.97;3.05;;;;;;;11.44;55.17;94163.53;5121140;27;20035;-70
2021/05/04 02:47:35;;;;;;;8.50;3.00;;;;;;;11.40;55.65;94172.47;5128891;27;20383;-70
2021/05/04 02:50:00;;;;;;;8.63;3.47;;;;;;;11.29;55.59;94173.84;5128086;27;20179;-70
2021/05/04 02:52:26;;;;;;;5.95;3.60;;;;;;;11.17;56.00;94177.91;5130143;27;20026;-70
2021/05/04 02:54:51;;;;;;;11.75;3.08;;;;;;;11.07;56.10;94175.47;5121884;27;20410;-71
2021/05/04 02:57:19;;;;;;;4.95;3.10;;;;;;;11.05;55.25;94188.34;5127754;27;20050;-71
2021/05/04 02:59:44;;;;;;;5.13;2.97;;;;;;;10.99;55.24;94186.91;5119176;27;20023;-71
2021/05/04 03:02:10;;;;;;;6.35;3.42;;;;;;;10.87;55.80;94192.00;5127501;27;20398;-71
2021/05/04 03:04:35;;;;;;;10.02;2.92;;;;;;;10.78;56.13;94183.97;5129119;27;20471;-71
2021/05/04 03:07:01;;;;;;;7.20;3.42;;;;;;;10.67;55.88;94186.13;5121439;27;20035;-70
2021/05/04 03:09:26;;;;;;;7.43;3.50;;;;;;;10.61;56.37;94195.34;5128837;27;20050;-71
2021/05/04 03:11:52;;;;;;;9.10;5.25;;;;;;;10.62;56.87;94192.38;5126800;27;20474;-71
2021/05/04 03:14:17;;;;;;;9.82;3.25;;;;;;;10.72;56.37;94191.31;5131022;27;20079;-71
2021/05/04 03:16:43;;;;;;;4.80;3.03;;;;;;;10.73;56.01;94186.78;5122958;27;20096;-70
2021/05/04 03:19:08;;;;;;;8.40;3.33;;;;;;;10.73;55.71;94194.78;5124172;27;20022;-71
2021/05/04 03:21:33;;;;;;;4.85;3.13;;;;;;;10.71;55.70;94194.31;5129320;27;20019;-70
2021/05/04 03:23:59;;;;;;;7.70;3.47;;;;;;;10.67;55.91;94204.00;5130957;27;20024;-71
2021/05/04 03:26:24;;;;;;;6.38;2.85;;;;;;;10.74;55.74;94215.78;5124354;27;20106;-71
2021/05/04 03:28:50;;;;;;;5.63;3.05;;;;;;;10.75;54.96;94219.25;5127150;27;20019;-70
2021/05/04 03:31:15;;;;;;;6.25;2.70;;;;;;;10.77;54.91;94217.09;5128847;27;20015;-71
2021/05/04 03:33:41;;;;;;;5.70;3.47;;;;;;;10.79;55.20;94207.69;5124767;27;20102;-70
2021/05/04 03:36:06;;;;;;;8.18;3.30;;;;;;;10.79;55.40;94213.00;5128956;27;20398;-71
2021/05/04 03:38:32;;;;;;;6.28;2.90;;;;;;;10.78;56.52;94223.97;5129578;27;20490;-71
2021/05/04 03:40:58;;;;;;;4.47;3.00;;;;;;;10.71;55.94;94215.63;5124205;27;20023;-70
2021/05/04 03:43:23;;;;;;;7.35;3.03;;;;;;;10.73;55.84;94219.56;5129235;27;20401;-70
2021/05/04 03:45:49;;;;;;;7.47;3.20;;;;;;;10.73;54.81;94219.56;5128950;27;20064;-70
2021/05/04 03:48:14;;;;;;;8.32;3.40;;;;;;;10.72;54.93;94222.53;5125181;27;20062;-71
2021/05/04 03:50:40;;;;;;;4.38;3.00;;;;;;;10.71;55.14;94218.31;5125386;27;20039;-70
2021/05/04 03:53:05;;;;;;;6.32;3.53;;;;;;;10.76;55.54;94213.59;5130539;28;20027;-70
2021/05/04 03:55:31;;;;;;;7.40;3.20;;;;;;;10.85;54.13;94213.69;5128960;28;20121;-70
2021/05/04 03:57:56;;;;;;;4.35;2.70;;;;;;;10.91;53.27;94208.97;5129085;28;20015;-71
2021/05/04 04:00:22;;;;;;;5.03;3.03;;;;;;;10.90;53.19;94210.09;5130164;28;20023;-70
2021/05/04 04:02:48;;;;;;;6.28;3.17;;;;;;;10.87;53.01;94208.81;5123208;27;20144;-70
2021/05/04 04:05:14;;;;;;;7.57;3.30;;;;;;;10.88;53.21;94214.94;5131370;27;20547;-70
2021/05/04 04:07:40;;;;;;;9.13;3.05;;;;;;;10.88;53.85;94213.06;5117842;27;20394;-71
2021/05/04 04:10:07;;;;;;;8.93;3.22;;;;;;;10.98;53.66;94215.47;5118189;27;20100;-70
2021/05/04 04:12:32;;;;;;;5.70;2.85;;;;;;;10.94;53.28;94227.81;5145895;27;20034;-70
2021/05/04 04:14:58;;;;;;;7.50;3.10;;;;;;;10.93;53.98;94226.28;5132977;27;20023;-70
2021/05/04 04:17:23;;;;;;;8.38;4.47;;;;;;;10.92;53.98;94219.34;5126988;27;20053;-71
2021/05/04 04:19:49;;;;;;;6.80;3.10;;;;;;;10.92;53.97;94211.34;5134484;27;20019;-70
2021/05/04 04:22:15;;;;;;;7.60;3.22;;;;;;;10.92;54.24;94215.91;5133957;27;20034;-70
2021/05/04 04:24:40;;;;;;;17.92;4.50;;;;;;;10.98;54.63;94220.78;5126325;27;20110;-71
2021/05/04 04:27:06;;;;;;;6.75;3.15;;;;;;;11.05;54.34;94220.34;5132584;27;20027;-71
2021/05/04 04:29:32;;;;;;;6.10;2.70;;;;;;;11.04;55.25;94222.22;5124126;27;20024;-70
2021/05/04 04:32:00;;;;;;;10.43;2.65;;;;;;;11.09;55.03;94229.31;5126055;27;20034;-71
2021/05/04 04:34:26;;;;;;;4.78;3.00;;;;;;;11.07;53.67;94225.38;5121722;27;20510;-71
2021/05/04 04:36:51;;;;;;;4.88;2.72;;;;;;;10.98;54.40;94226.13;5129646;27;20109;-71
2021/05/04 04:39:16;;;;;;;10.85;3.28;;;;;;;11.04;52.68;94232.13;5133956;27;20045;-70
2021/05/04 04:41:42;;;;;;;9.68;2.80;;;;;;;11.09;53.49;94239.19;5130779;27;20027;-71
2021/05/04 04:44:08;;;;;;;5.45;2.70;;;;;;;11.17;53.71;94239.25;5129856;27;20030;-71
2021/05/04 04:46:41;;;;;;;8.50;2.95;;;;;;;11.29;50.31;94241.31;5131479;27;20076;-70
2021/05/04 04:49:12;;;;;;;8.65;2.80;;;;;;;11.36;50.54;94240.91;5121317;27;20039;-71
2021/05/04 04:51:38;;;;;;;8.13;3.28;;;;;;;11.43;50.91;94231.34;5132469;27;20483;-71
2021/05/04 04:54:04;;;;;;;6.22;2.40;;;;;;;11.50;50.20;94238.91;5130460;27;20039;-70
2021/05/04 04:56:30;;;;;;;11.00;3.97;;;;;;;11.59;49.86;94230.94;5130095;27;20081;-70
2021/05/04 04:58:56;;;;;;;12.50;3.17;;;;;;;11.63;49.25;94234.56;5130151;27;20033;-71
2021/05/04 05:01:21;;;;;;;5.10;2.80;;;;;;;11.70;49.20;94234.09;5129565;27;20478;-70
2021/05/04 05:03:47;;;;;;;5.93;3.42;;;;;;;11.76;49.37;94232.84;5124130;27;20030;-70
2021/05/04 05:06:12;;;;;;;7.40;3.33;;;;;;;11.83;48.02;94233.97;5129972;27;20467;-70
2021/05/04 05:08:38;;;;;;;5.05;3.13;;;;;;;11.94;48.46;94229.13;5129766;27;20070;-71
2021/05/04 05:11:03;;;;;;;8.85;3.10;;;;;;;12.10;48.15;94237.50;5132086;27;20110;-70
2021/05/04 05:13:28;;;;;;;4.32;2.80;;;;;;;12.21;47.75;94243.31;5132193;27;20027;-70
2021/05/04 05:15:54;;;;;;;10.10;3.28;;;;;;;12.22;47.02;94237.66;5130892;27;20091;-70
2021/05/04 05:18:19;;;;;;;4.13;3.03;;;;;;;12.14;47.26;94243.78;5116732;27;20061;-71
2021/05/04 05:20:45;;;;;;;7.47;3.42;;;;;;;12.06;47.88;94241.88;5129554;27;20092;-71
2021/05/04 05:23:12;;;;;;;7.55;3.65;;;;;;;12.00;47.84;94227.09;5126427;27;20080;-72
2021/05/04 05:25:38;;;;;;;6.50;2.80;;;;;;;12.00;47.90;94230.56;5119314;27;20100;-70
2021/05/04 05:28:05;;;;;;;4.40;2.53;;;;;;;11.95;47.88;94230.72;5119355;27;20043;-70
2021/05/04 05:30:30;;;;;;;7.85;3.45;;;;;;;12.06;47.96;94228.53;5117763;27;20072;-70
2021/05/04 05:32:55;;;;;;;7.30;3.30;;;;;;;12.07;48.41;94229.31;5132221;27;20470;-70
2021/05/04 05:35:21;;;;;;;9.10;3.30;;;;;;;11.98;47.26;94234.66;5130677;27;20027;-71
2021/05/04 05:37:46;;;;;;;6.22;2.90;;;;;;;11.95;47.61;94221.94;5123379;27;20039;-71
2021/05/04 05:40:12;;;;;;;7.63;2.88;;;;;;;11.98;47.41;94218.63;5129891;27;20450;-71
2021/05/04 05:42:37;;;;;;;16.20;3.63;;;;;;;12.04;48.48;94217.38;5127102;27;20072;-70
2021/05/04 05:45:04;;;;;;;8.00;3.60;;;;;;;12.05;48.15;94216.28;5126458;27;20026;-70
2021/05/04 05:47:29;;;;;;;5.95;3.30;;;;;;;12.13;48.32;94215.50;5122312;27;20164;-70
2021/05/04 05:49:55;;;;;;;7.53;3.55;;;;;;;12.24;47.81;94211.41;5130463;27;20492;-70
2021/05/04 05:52:20;;;;;;;6.97;3.08;;;;;;;12.35;48.00;94195.84;5120157;27;20035;-70
2021/05/04 05:54:46;;;;;;;7.70;3.50;;;;;;;12.47;48.12;94203.22;5123648;27;20019;-71
2021/05/04 05:57:11;;;;;;;6.95;2.90;;;;;;;12.61;47.62;94195.81;5121234;27;20099;-71
2021/05/04 05:59:36;;;;;;;10.27;3.20;;;;;;;12.58;46.87;94193.78;5122841;27;20015;-71
2021/05/04 06:02:02;;;;;;;6.45;3.47;;;;;;;12.48;46.14;94199.47;5129762;27;20027;-71
2021/05/04 06:04:27;;;;;;;7.45;2.97;;;;;;;12.38;46.91;94183.75;5115899;27;20118;-71
2021/05/04 06:06:53;;;;;;;4.13;2.90;;;;;;;12.45;46.93;94182.13;5129135;27;20100;-71
2021/05/04 06:09:18;;;;;;;17.17;4.43;;;;;;;12.56;46.72;94187.97;5131856;27;20031;-71
2021/05/04 06:11:43;;;;;;;7.03;3.35;;;;;;;12.68;46.53;94192.69;5119921;27;20093;-71
2021/05/04 06:14:09;;;;;;;7.00;3.53;;;;;;;12.67;45.92;94187.63;5121184;27;20461;-71
2021/05/04 06:16:34;;;;;;;6.40;3.53;;;;;;;12.68;46.26;94183.84;5123430;27;20031;-71
2021/05/04 06:19:00;;;;;;;10.18;3.13;;;;;;;12.65;45.95;94177.25;5119292;27;20040;-70
2021/05/04 06:21:25;;;;;;;9.77;3.40;;;;;;;12.73;45.53;94183.69;5132041;27;20023;-71
2021/05/04 06:23:51;;;;;;;9.45;3.50;;;;;;;12.73;46.06;94179.13;5127590;27;20019;-71
2021/05/04 06:26:18;;;;;;;6.85;3.53;;;;;;;12.82;45.57;94165.72;5131654;27;20076;-71
2021/05/04 06:28:48;;;;;;;7.53;3.40;;;;;;;12.89;45.70;94166.03;5130364;27;20027;-70
2021/05/04 06:31:18;;;;;;;4.10;2.75;;;;;;;12.99;45.96;94170.25;5124323;27;20022;-71
2021/05/04 06:33:44;;;;;;;8.40;3.72;;;;;;;13.09;46.14;94166.41;5131620;27;20027;-71
2021/05/04 06:36:10;;;;;;;6.63;4.07;;;;;;;13.24;45.88;94166.66;5120850;27;20042;-70
2021/05/04 06:38:36;;;;;;;5.03;3.40;;;;;;;13.30;45.43;94161.94;5128201;27;20406;-71
2021/05/04 06:41:02;;;;;;;6.30;3.38;;;;;;;13.36;44.95;94166.03;5121196;27;20027;-71
2021/05/04 06:43:27;;;;;;;12.77;3.88;;;;;;;13.49;44.26;94160.75;5117981;27;20012;-71
2021/05/04 06:45:53;;;;;;;8.32;3.80;;;;;;;13.51;44.48;94158.53;5126497;27;20026;-71
2021/05/04 06:48:19;;;;;;;5.25;3.17;;;;;;;13.55;45.20;94154.88;5129180;27;20065;-71
2021/05/04 06:50:44;;;;;;;8.38;3.50;;;;;;;13.53;44.48;94161.69;5131649;27;20019;-71
2021/05/04 06:53:10;;;;;;;9.13;3.47;;;;;;;13.61;44.86;94152.81;5120249;27;20020;-71
2021/05/04 06:55:36;;;;;;;7.22;2.88;;;;;;;13.72;44.99;94151.34;5116302;27;20059;-71
2021/05/04 06:58:01;;;;;;;5.68;3.20;;;;;;;13.78;44.60;94158.06;5113739;27;20077;-70
2021/05/04 07:00:27;;;;;;;6.22;3.40;;;;;;;13.97;44.02;94148.78;5129680;27;20027;-71
2021/05/04 07:02:52;;;;;;;7.50;3.35;;;;;;;13.96;43.08;94149.88;5115741;27;20016;-71
2021/05/04 07:05:19;;;;;;;8.07;3.30;;;;;;;13.88;43.67;94150.75;5127609;27;20019;-71
2021/05/04 07:07:44;;;;;;;6.65;3.63;;;;;;;13.86;43.28;94137.69;5121936;27;20022;-71
2021/05/04 07:10:10;;;;;;;9.50;3.10;;;;;;;13.98;43.26;94142.31;5131317;27;20023;-71
2021/05/04 07:12:37;;;;;;;6.32;3.63;;;;;;;14.13;43.18;94131.00;5130943;27;20054;-71
2021/05/04 07:15:03;;;;;;;9.18;3.30;;;;;;;14.34;42.29;94132.88;5128505;27;20482;-72
2021/05/04 07:17:29;;;;;;;9.23;3.05;;;;;;;14.40;41.74;94134.25;5128338;27;20030;-73
2021/05/04 07:19:55;;;;;;;10.23;3.25;;;;;;;14.52;42.04;94131.59;5130208;27;20406;-72
2021/05/04 07:22:24;;;;;;;5.35;3.15;;;;;;;14.68;41.00;94125.66;5130153;27;20077;-73
2021/05/04 07:24:50;;;;;;;7.47;3.03;;;;;;;14.78;40.27;94123.31;5130389;27;20028;-73
2021/05/04 07:27:16;;;;;;;9.02;3.20;;;;;;;14.91;40.24;94126.78;5131505;27;20398;-72
2021/05/04 07:29:41;;;;;;;10.55;2.92;;;;;;;15.04;39.17;94131.06;5131687;27;20503;-73
2021/05/04 07:32:06;;;;;;;4.05;2.47;;;;;;;14.92;38.62;94122.19;5129742;27;20023;-73
2021/05/04 07:34:32;;;;;;;8.07;2.20;;;;;;;15.02;39.39;94119.88;5130925;27;20561;-72
2021/05/04 07:36:57;;;;;;;3.90;2.40;;;;;;;15.10;38.99;94128.94;5129294;27;20406;-72
2021/05/04 07:39:23;;;;;;;5.80;2.92;;;;;;;15.24;38.93;94132.09;5130070;27;20214;-72
2021/05/04 07:41:49;;;;;;;5.88;2.30;;;;;;;15.39;38.79;94130.63;5130939;27;20094;-72
2021/05/04 07:44:14;;;;;;;9.77;2.33;;;;;;;15.55;37.53;94127.25;5129825;27;20238;-72
2021/05/04 07:46:39;;;;;;;6.10;2.28;;;;;;;15.70;37.45;94129.25;5129717;27;20035;-73
2021/05/04 07:49:10;;;;;;;9.30;2.50;;;;;;;15.84;36.84;94123.56;5131193;27;20042;-72
2021/05/04 07:51:36;;;;;;;5.85;2.60;;;;;;;15.94;36.79;94114.25;5129462;28;20031;-72
2021/05/04 07:54:02;;;;;;;3.53;2.17;;;;;;;15.81;36.26;94114.28;5130673;27;20023;-72
2021/05/04 07:56:28;;;;;;;5.97;2.40;;;;;;;15.68;37.15;94117.28;5129909;27;20035;-73
2021/05/04 07:58:53;;;;;;;4.10;2.42;;;;;;;15.72;36.97;94127.03;5130882;27;20026;-73
2021/05/04 08:01:18;;;;;;;4.55;2.60;;;;;;;15.67;37.09;94129.91;5129724;27;20022;-73
2021/05/04 08:03:44;;;;;;;3.22;2.00;;;;;;;15.70;36.46;94115.81;5129653;28;20291;-73
2021/05/04 08:06:09;;;;;;;4.68;2.35;;;;;;;15.74;36.27;94107.91;5129629;27;20029;-72
2021/05/04 08:08:35;;;;;;;5.78;2.13;;;;;;;15.72;36.68;94110.91;5129573;28;20119;-73
2021/05/04 08:11:00;;;;;;;6.25;1.98;;;;;;;15.74;35.60;94114.03;5131235;27;20019;-73
2021/05/04 08:13:26;;;;;;;7.00;1.92;;;;;;;15.76;36.67;94101.06;5130906;27;20418;-73
2021/05/04 08:15:54;;;;;;;7.20;2.50;;;;;;;15.60;35.98;94100.16;5129576;28;20047;-72
2021/05/04 08:18:20;;;;;;;5.32;2.22;;;;;;;15.63;36.90;94091.41;5129593;27;20027;-73
2021/05/04 08:20:53;;;;;;;4.40;1.80;;;;;;;15.65;37.47;94083.78;5130784;27;20034;-72
2021/05/04 08:23:21;;;;;;;6.20;2.38;;;;;;;15.78;36.34;94085.38;5131005;27;20495;-73
2021/05/04 08:25:46;;;;;;;6.68;2.50;;;;;;;15.87;35.99;94079.06;5129409;28;20402;-73
2021/05/04 08:28:12;;;;;;;13.95;2.80;;;;;;;16.05;36.38;94085.72;5130742;27;20027;-72
2021/05/04 08:30:37;;;;;;;7.65;2.00;;;;;;;16.13;35.38;94071.38;5130957;27;20094;-73
2021/05/04 08:33:04;;;;;;;4.15;1.73;;;;;;;16.31;34.70;94079.91;5129458;27;20037;-73
2021/05/04 08:35:30;;;;;;;7.85;1.83;;;;;;;16.34;34.39;94081.13;5130629;27;20066;-73
2021/05/04 08:37:56;;;;;;;5.57;1.90;;;;;;;16.42;33.61;94082.88;5123477;28;20035;-73
2021/05/04 08:40:23;;;;;;;6.22;2.42;;;;;;;16.46;33.01;94078.38;5126651;28;20026;-73
2021/05/04 08:42:48;;;;;;;6.35;2.03;;;;;;;16.57;33.27;94079.44;5129750;28;20502;-73
2021/05/04 08:45:15;;;;;;;4.30;2.20;;;;;;;16.79;34.26;94085.34;5126044;28;20027;-73
2021/05/04 08:47:47;;;;;;;6.38;2.58;;;;;;;16.94;33.99;94073.84;5129897;27;20462;-73
2021/05/04 08:50:15;;;;;;;4.50;2.58;;;;;;;17.00;33.04;94080.53;5127225;27;20023;-73
2021/05/04 08:52:41;;;;;;;6.43;2.70;;;;;;;16.99;32.31;94064.72;5126547;27;20107;-73
2021/05/04 08:55:07;;;;;;;8.68;2.20;;;;;;;16.93;33.34;94064.19;5120782;27;20080;-73
2021/05/04 08:57:36;;;;;;;3.95;1.98;;;;;;;17.03;33.72;94063.69;5125216;27;20106;-73
2021/05/04 09:00:07;;;;;;;5.38;2.55;;;;;;;17.13;33.28;94070.44;5122835;27;20023;-73
2021/05/04 09:03:05;;;;;;;3.67;2.20;;;;;;;17.20;32.73;94061.78;5131230;27;20023;-71
2021/05/04 09:08:47;;;;;;;4.50;2.25;;;;;;;17.62;32.24;94059.22;5123545;27;20050;-71
2021/05/04 09:21:56;;;;;;;10.50;2.78;;;;;;;18.03;30.68;94045.44;5118498;27;20016;-71
2021/05/04 09:24:26;;;;;;;8.43;2.30;;;;;;;18.09;31.12;94035.94;5124958;27;20019;-71
2021/05/04 09:27:01;;;;;;;11.25;2.85;;;;;;;18.20;31.65;94019.97;5133370;27;20053;-71
2021/05/04 09:29:32;;;;;;;8.63;2.70;;;;;;;18.33;30.68;94031.38;5129806;27;20020;-71
2021/05/04 09:32:14;;;;;;;10.48;2.90;;;;;;;18.53;31.41;94029.44;5129706;27;20033;-71
2021/05/04 09:35:08;;;;;;;11.13;2.45;;;;;;;18.69;29.89;94030.09;5132589;27;20100;-71
2021/05/04 09:37:40;;;;;;;3.75;2.30;;;;;;;18.78;29.75;94017.09;5129828;27;20042;-71
2021/05/04 09:40:22;;;;;;;4.88;2.53;;;;;;;18.92;29.56;94016.59;5132815;27;20027;-72
2021/05/04 09:42:58;;;;;;;5.88;2.45;;;;;;;19.11;29.70;94012.25;5124609;27;20502;-71
2021/05/04 09:45:25;;;;;;;6.72;2.42;;;;;;;19.26;29.56;94014.03;5131405;27;20393;-71
2021/05/04 09:48:29;;;;;;;4.70;2.58;;;;;;;19.41;29.19;94015.78;5131326;27;20080;-71
2021/05/04 09:51:02;;;;;;;9.27;2.63;;;;;;;19.47;28.01;94004.66;5129270;27;20065;-71
2021/05/04 09:56:03;;;;;;;6.80;2.22;;;;;;;19.63;28.89;94010.66;5117759;27;20056;-71
2021/05/04 09:58:49;;;;;;;10.50;2.25;;;;;;;19.74;28.75;93998.09;5129480;27;20034;-71
2021/05/04 10:01:20;;;;;;;6.35;2.40;;;;;;;19.81;28.43;94000.88;5122767;27;20062;-72
2021/05/04 10:03:49;;;;;;;6.47;2.38;;;;;;;19.97;27.52;93997.22;5129979;27;20019;-71
2021/05/04 10:06:17;;;;;;;5.00;2.50;;;;;;;19.87;27.33;93998.63;5121942;27;20023;-72
2021/05/04 10:08:43;;;;;;;6.53;2.40;;;;;;;19.59;26.94;93997.09;5129525;27;20019;-71
2021/05/04 10:11:20;;;;;;;6.32;2.30;;;;;;;19.47;27.63;93999.25;5118958;27;20027;-71
2021/05/04 10:13:58;;;;;;;11.43;2.50;;;;;;;19.38;27.43;93989.50;5122462;27;20019;-72
2021/05/04 10:16:28;;;;;;;4.72;2.22;;;;;;;19.39;27.98;94001.84;5132311;27;20023;-71
2021/05/04 10:18:59;;;;;;;4.85;1.92;;;;;;;19.51;29.02;93994.66;5127686;27;20079;-71
2021/05/04 10:21:26;;;;;;;8.25;3.45;;;;;;;19.66;29.69;93993.69;5115614;27;20019;-72
2021/05/04 10:23:51;;;;;;;10.55;3.97;;;;;;;19.90;29.89;93995.19;5131300;27;20015;-72
2021/05/04 10:26:18;;;;;;;8.43;2.97;;;;;;;20.11;28.49;93986.53;5126123;27;20079;-71
2021/05/04 10:28:51;;;;;;;10.32;3.08;;;;;;;20.23;28.30;93993.59;5128645;27;20411;-72
2021/05/04 10:31:17;;;;;;;21.25;3.03;;;;;;;20.37;28.68;93992.97;5128691;27;20032;-71
2021/05/04 10:33:44;;;;;;;4.32;2.20;;;;;;;20.29;26.45;93980.53;5121033;27;20027;-71
2021/05/04 10:36:35;;;;;;;2.92;2.03;;;;;;;20.19;27.35;93985.47;5124010;27;20027;-72
2021/05/04 10:39:03;;;;;;;6.85;1.98;;;;;;;20.27;28.48;93993.66;5122664;27;20019;-71
2021/05/04 10:41:28;;;;;;;4.80;2.40;;;;;;;20.21;26.86;93979.66;5128661;27;20513;-71
2021/05/04 10:44:12;;;;;;;4.13;2.22;;;;;;;20.24;28.30;93973.53;5129910;27;20028;-71
2021/05/04 10:46:42;;;;;;;9.52;2.20;;;;;;;20.42;29.22;93965.56;5135209;27;20031;-71
2021/05/04 10:49:17;;;;;;;4.47;2.35;;;;;;;20.58;28.45;93959.91;5126879;27;20532;-71
2021/05/04 10:51:49;;;;;;;4.00;2.00;;;;;;;20.72;29.11;93946.53;5130392;27;20038;-72
2021/05/04 10:54:16;;;;;;;9.97;2.67;;;;;;;20.95;28.84;93954.44;5126253;27;20035;-71
2021/05/04 10:56:48;;;;;;;6.38;2.15;;;;;;;21.14;28.28;93942.53;5126247;27;20459;-71
2021/05/04 10:59:33;;;;;;;4.78;2.25;;;;;;;21.24;26.61;93947.25;5115482;27;20383;-71
2021/05/04 11:02:08;;;;;;;6.82;2.25;;;;;;;21.38;27.51;93935.72;5126715;27;20466;-71
2021/05/04 11:04:53;;;;;;;6.75;2.67;;;;;;;21.58;27.71;93928.09;5125349;27;20457;-71
2021/05/04 11:07:56;;;;;;;4.68;2.83;;;;;;;21.76;27.78;93927.38;5126681;27;20011;-72
2021/05/04 11:10:24;;;;;;;6.45;2.20;;;;;;;21.87;26.44;93930.91;5121979;27;20011;-72
2021/05/04 11:12:50;;;;;;;9.73;2.35;;;;;;;21.95;26.28;93935.19;5117701;27;20034;-71
2021/05/04 11:15:19;;;;;;;9.15;2.22;;;;;;;21.81;25.76;93924.28;5129332;27;20366;-71
2021/05/04 11:17:44;;;;;;;3.03;1.80;;;;;;;21.83;25.69;93933.59;5121486;27;20023;-72
2021/05/04 11:20:34;;;;;;;11.57;2.60;;;;;;;21.97;27.49;93922.00;5130800;27;20110;-71
2021/05/04 11:22:59;;;;;;;5.07;2.50;;;;;;;22.15;26.48;93919.34;5127705;27;20036;-71
2021/05/04 11:25:32;;;;;;;7.60;2.78;;;;;;;22.29;26.82;93915.91;5118895;27;20384;-71
2021/05/04 11:27:57;;;;;;;5.07;2.63;;;;;;;22.42;26.32;93905.44;5128552;27;20515;-71
2021/05/04 11:30:38;;;;;;;6.97;2.50;;;;;;;22.57;25.65;93920.59;5127550;27;20057;-71
2021/05/04 11:33:42;;;;;;;4.43;2.53;;;;;;;22.69;26.05;93907.75;5127160;27;20023;-71
2021/05/04 11:36:07;;;;;;;5.85;2.58;;;;;;;22.74;25.81;93912.81;5055344;28;20029;-72
2021/05/04 11:38:33;;;;;;;7.60;2.40;;;;;;;22.81;26.54;93908.13;5041010;28;20641;-71
2021/05/04 11:41:09;;;;;;;6.28;2.85;;;;;;;22.85;25.44;93910.84;5089352;27;20035;-72
2021/05/04 11:43:34;;;;;;;4.88;2.28;;;;;;;22.81;25.24;93910.84;5124337;27;20687;-71
2021/05/04 11:46:00;;;;;;;8.38;2.58;;;;;;;22.73;25.61;93895.72;5117370;27;20026;-71
2021/05/04 11:48:31;;;;;;;7.95;2.17;;;;;;;22.68;25.15;93898.06;5119943;27;20418;-72
2021/05/04 11:50:56;;;;;;;4.50;2.38;;;;;;;22.55;25.89;93893.03;5130151;27;20073;-71